sensor_id;sensor_type;location;lat;lon;timestamp;P1;durP1;ratioP1;P2;durP2;ratioP2
76867;SDS011;66168;45.478;11.060;2022-12-18T00:01:23;6.00;;;4.00;;
76867;SDS011;66168;45.478;11.060;2022-12-18T00:03:52;6.10;;;3.70;;
76867;SDS011;66168;45.478;11.060;2022-12-18T00:06:21;4.10;;;3.40;;
76867;SDS011;66168;45.478;11.060;2022-12-18T00:08:48;5.30;;;3.60;;
76867;SDS011;66168;45.478;11.060;2022-12-18T00:11:19;4.90;;;3.60;;
76867;SDS011;66168;45.478;11.060;2022-12-18T00:13:48;4.30;;;3.50;;
76867;SDS011;66168;45.478;11.060;2022-12-18T00:16:17;3.40;;;3.10;;
76867;SDS011;66168;45.478;11.060;2022-12-18T00:18:49;5.30;;;3.60;;
76867;SDS011;66168;45.478;11.060;2022-12-18T00:21:17;4.30;;;3.90;;
76867;SDS011;66168;45.478;11.060;2022-12-18T00:23:45;5.00;;;4.20;;
76867;SDS011;66168;45.478;11.060;2022-12-18T00:26:14;4.80;;;3.70;;
76867;SDS011;66168;45.478;11.060;2022-12-18T00:28:50;5.00;;;4.10;;
76867;SDS011;66168;45.478;11.060;2022-12-18T00:31:19;6.30;;;4.70;;
76867;SDS011;66168;45.478;11.060;2022-12-18T00:33:48;6.10;;;4.70;;
76867;SDS011;66168;45.478;11.060;2022-12-18T00:36:20;5.40;;;4.60;;
76867;SDS011;66168;45.478;11.060;2022-12-18T00:38:51;5.00;;;3.90;;
76867;SDS011;66168;45.478;11.060;2022-12-18T00:41:19;4.20;;;3.80;;
76867;SDS011;66168;45.478;11.060;2022-12-18T00:44:06;4.50;;;3.80;;
76867;SDS011;66168;45.478;11.060;2022-12-18T00:46:35;4.20;;;3.70;;
76867;SDS011;66168;45.478;11.060;2022-12-18T00:49:02;5.60;;;4.30;;
76867;SDS011;66168;45.478;11.060;2022-12-18T00:51:30;4.90;;;4.40;;
76867;SDS011;66168;45.478;11.060;2022-12-18T00:53:57;4.60;;;3.70;;
76867;SDS011;66168;45.478;11.060;2022-12-18T00:56:24;4.60;;;3.70;;
76867;SDS011;66168;45.478;11.060;2022-12-18T00:58:51;7.30;;;4.90;;
76867;SDS011;66168;45.478;11.060;2022-12-18T01:01:18;6.30;;;4.90;;
76867;SDS011;66168;45.478;11.060;2022-12-18T01:03:46;4.10;;;3.50;;
76867;SDS011;66168;45.478;11.060;2022-12-18T01:06:15;5.50;;;3.90;;
76867;SDS011;66168;45.478;11.060;2022-12-18T01:08:43;10.40;;;6.50;;
76867;SDS011;66168;45.478;11.060;2022-12-18T01:11:15;5.50;;;4.20;;
76867;SDS011;66168;45.478;11.060;2022-12-18T01:13:44;5.40;;;3.80;;
76867;SDS011;66168;45.478;11.060;2022-12-18T01:16:12;7.20;;;5.30;;
76867;SDS011;66168;45.478;11.060;2022-12-18T01:18:40;7.20;;;4.70;;
76867;SDS011;66168;45.478;11.060;2022-12-18T01:21:08;6.10;;;4.80;;
76867;SDS011;66168;45.478;11.060;2022-12-18T01:23:37;4.30;;;3.90;;
76867;SDS011;66168;45.478;11.060;2022-12-18T01:26:06;3.90;;;3.20;;
76867;SDS011;66168;45.478;11.060;2022-12-18T01:28:34;5.20;;;3.70;;
76867;SDS011;66168;45.478;11.060;2022-12-18T01:31:15;6.80;;;4.30;;
76867;SDS011;66168;45.478;11.060;2022-12-18T01:33:43;4.20;;;3.60;;
76867;SDS011;66168;45.478;11.060;2022-12-18T01:36:14;4.60;;;3.70;;
76867;SDS011;66168;45.478;11.060;2022-12-18T01:38:46;5.10;;;4.00;;
76867;SDS011;66168;45.478;11.060;2022-12-18T01:41:14;4.30;;;3.90;;
76867;SDS011;66168;45.478;11.060;2022-12-18T01:43:50;4.30;;;3.50;;
76867;SDS011;66168;45.478;11.060;2022-12-18T01:46:23;4.80;;;4.00;;
76867;SDS011;66168;45.478;11.060;2022-12-18T01:48:52;4.70;;;4.20;;
76867;SDS011;66168;45.478;11.060;2022-12-18T01:51:23;4.80;;;4.20;;
76867;SDS011;66168;45.478;11.060;2022-12-18T01:53:52;4.50;;;3.70;;
76867;SDS011;66168;45.478;11.060;2022-12-18T01:56:19;3.90;;;3.50;;
76867;SDS011;66168;45.478;11.060;2022-12-18T01:58:52;5.80;;;3.90;;
76867;SDS011;66168;45.478;11.060;2022-12-18T02:01:28;3.60;;;3.20;;
76867;SDS011;66168;45.478;11.060;2022-12-18T02:06:46;4.20;;;3.70;;
76867;SDS011;66168;45.478;11.060;2022-12-18T02:09:23;3.70;;;3.30;;
76867;SDS011;66168;45.478;11.060;2022-12-18T02:14:39;3.50;;;3.00;;
76867;SDS011;66168;45.478;11.060;2022-12-18T02:17:22;3.70;;;3.40;;
76867;SDS011;66168;45.478;11.060;2022-12-18T02:28:35;4.10;;;3.70;;
76867;SDS011;66168;45.478;11.060;2022-12-18T02:31:15;3.90;;;3.00;;
76867;SDS011;66168;45.478;11.060;2022-12-18T02:33:47;4.10;;;3.30;;
76867;SDS011;66168;45.478;11.060;2022-12-18T02:36:17;4.10;;;3.70;;
76867;SDS011;66168;45.478;11.060;2022-12-18T02:38:47;4.60;;;3.80;;
76867;SDS011;66168;45.478;11.060;2022-12-18T02:41:14;4.10;;;3.70;;
76867;SDS011;66168;45.478;11.060;2022-12-18T02:43:47;4.50;;;3.40;;
76867;SDS011;66168;45.478;11.060;2022-12-18T02:46:29;4.00;;;3.20;;
76867;SDS011;66168;45.478;11.060;2022-12-18T02:49:06;3.90;;;3.10;;
76867;SDS011;66168;45.478;11.060;2022-12-18T02:51:57;4.50;;;3.60;;
76867;SDS011;66168;45.478;11.060;2022-12-18T02:56:54;4.40;;;3.50;;
76867;SDS011;66168;45.478;11.060;2022-12-18T02:59:28;4.10;;;3.50;;
76867;SDS011;66168;45.478;11.060;2022-12-18T03:02:05;4.10;;;3.70;;
76867;SDS011;66168;45.478;11.060;2022-12-18T03:07:20;3.70;;;3.30;;
76867;SDS011;66168;45.478;11.060;2022-12-18T03:09:53;3.80;;;3.50;;
76867;SDS011;66168;45.478;11.060;2022-12-18T03:12:28;5.10;;;3.80;;
76867;SDS011;66168;45.478;11.060;2022-12-18T03:17:49;4.90;;;3.80;;
76867;SDS011;66168;45.478;11.060;2022-12-18T03:20:20;4.80;;;3.80;;
76867;SDS011;66168;45.478;11.060;2022-12-18T03:27:53;4.10;;;3.70;;
76867;SDS011;66168;45.478;11.060;2022-12-18T03:30:24;5.90;;;4.30;;
76867;SDS011;66168;45.478;11.060;2022-12-18T03:33:07;5.60;;;4.40;;
76867;SDS011;66168;45.478;11.060;2022-12-18T03:35:40;5.40;;;4.20;;
76867;SDS011;66168;45.478;11.060;2022-12-18T03:38:10;8.60;;;4.20;;
76867;SDS011;66168;45.478;11.060;2022-12-18T03:40:43;7.10;;;4.40;;
76867;SDS011;66168;45.478;11.060;2022-12-18T03:43:16;4.60;;;4.00;;
76867;SDS011;66168;45.478;11.060;2022-12-18T03:46:01;4.50;;;3.10;;
76867;SDS011;66168;45.478;11.060;2022-12-18T03:51:09;6.70;;;4.10;;
76867;SDS011;66168;45.478;11.060;2022-12-18T03:53:49;6.60;;;4.10;;
76867;SDS011;66168;45.478;11.060;2022-12-18T03:56:22;7.40;;;5.00;;
76867;SDS011;66168;45.478;11.060;2022-12-18T03:58:55;5.00;;;4.20;;
76867;SDS011;66168;45.478;11.060;2022-12-18T04:01:30;4.70;;;4.20;;
76867;SDS011;66168;45.478;11.060;2022-12-18T04:04:00;6.00;;;4.40;;
76867;SDS011;66168;45.478;11.060;2022-12-18T04:06:35;6.70;;;4.50;;
76867;SDS011;66168;45.478;11.060;2022-12-18T04:09:03;4.50;;;3.50;;
76867;SDS011;66168;45.478;11.060;2022-12-18T04:11:34;5.20;;;3.90;;
76867;SDS011;66168;45.478;11.060;2022-12-18T04:14:01;7.80;;;4.40;;
76867;SDS011;66168;45.478;11.060;2022-12-18T04:16:33;5.60;;;4.00;;
76867;SDS011;66168;45.478;11.060;2022-12-18T04:19:01;6.90;;;4.10;;
76867;SDS011;66168;45.478;11.060;2022-12-18T04:21:29;5.30;;;4.20;;
76867;SDS011;66168;45.478;11.060;2022-12-18T04:23:59;4.70;;;4.30;;
76867;SDS011;66168;45.478;11.060;2022-12-18T04:26:27;4.90;;;4.30;;
76867;SDS011;66168;45.478;11.060;2022-12-18T04:29:02;5.00;;;4.30;;
76867;SDS011;66168;45.478;11.060;2022-12-18T04:31:29;5.80;;;4.10;;
76867;SDS011;66168;45.478;11.060;2022-12-18T04:33:56;6.40;;;4.00;;
76867;SDS011;66168;45.478;11.060;2022-12-18T04:36:26;5.50;;;3.90;;
76867;SDS011;66168;45.478;11.060;2022-12-18T04:38:54;4.20;;;3.80;;
76867;SDS011;66168;45.478;11.060;2022-12-18T04:41:21;4.10;;;3.60;;
76867;SDS011;66168;45.478;11.060;2022-12-18T04:43:48;8.60;;;4.00;;
76867;SDS011;66168;45.478;11.060;2022-12-18T04:46:15;4.80;;;4.00;;
76867;SDS011;66168;45.478;11.060;2022-12-18T04:48:44;3.70;;;3.10;;
76867;SDS011;66168;45.478;11.060;2022-12-18T04:51:12;6.70;;;3.40;;
76867;SDS011;66168;45.478;11.060;2022-12-18T04:53:39;5.40;;;3.60;;
76867;SDS011;66168;45.478;11.060;2022-12-18T04:56:07;4.60;;;3.90;;
76867;SDS011;66168;45.478;11.060;2022-12-18T04:58:42;4.80;;;3.60;;
76867;SDS011;66168;45.478;11.060;2022-12-18T05:01:11;3.90;;;2.90;;
76867;SDS011;66168;45.478;11.060;2022-12-18T05:03:40;3.40;;;3.10;;
76867;SDS011;66168;45.478;11.060;2022-12-18T05:06:08;3.90;;;3.50;;
76867;SDS011;66168;45.478;11.060;2022-12-18T05:08:35;4.20;;;3.80;;
76867;SDS011;66168;45.478;11.060;2022-12-18T05:11:03;4.90;;;3.90;;
76867;SDS011;66168;45.478;11.060;2022-12-18T05:13:42;4.00;;;3.50;;
76867;SDS011;66168;45.478;11.060;2022-12-18T05:16:10;5.10;;;4.10;;
76867;SDS011;66168;45.478;11.060;2022-12-18T05:18:38;5.60;;;4.40;;
76867;SDS011;66168;45.478;11.060;2022-12-18T05:21:05;4.30;;;3.60;;
76867;SDS011;66168;45.478;11.060;2022-12-18T05:23:35;6.20;;;3.80;;
76867;SDS011;66168;45.478;11.060;2022-12-18T05:26:04;6.70;;;4.70;;
76867;SDS011;66168;45.478;11.060;2022-12-18T05:28:33;5.70;;;4.40;;
76867;SDS011;66168;45.478;11.060;2022-12-18T05:31:01;5.90;;;4.20;;
76867;SDS011;66168;45.478;11.060;2022-12-18T05:33:30;6.70;;;4.40;;
76867;SDS011;66168;45.478;11.060;2022-12-18T05:35:59;5.60;;;3.90;;
76867;SDS011;66168;45.478;11.060;2022-12-18T05:38:30;5.50;;;4.20;;
76867;SDS011;66168;45.478;11.060;2022-12-18T05:40:58;5.00;;;4.00;;
76867;SDS011;66168;45.478;11.060;2022-12-18T05:43:25;6.70;;;5.10;;
76867;SDS011;66168;45.478;11.060;2022-12-18T05:45:53;7.80;;;4.50;;
76867;SDS011;66168;45.478;11.060;2022-12-18T05:48:21;6.50;;;4.70;;
76867;SDS011;66168;45.478;11.060;2022-12-18T05:50:49;7.40;;;5.30;;
76867;SDS011;66168;45.478;11.060;2022-12-18T05:53:18;8.60;;;5.00;;
76867;SDS011;66168;45.478;11.060;2022-12-18T05:55:46;7.60;;;5.80;;
76867;SDS011;66168;45.478;11.060;2022-12-18T05:58:14;6.40;;;5.00;;
76867;SDS011;66168;45.478;11.060;2022-12-18T06:00:43;6.20;;;4.70;;
76867;SDS011;66168;45.478;11.060;2022-12-18T06:03:11;6.00;;;4.70;;
76867;SDS011;66168;45.478;11.060;2022-12-18T06:05:41;7.90;;;5.60;;
76867;SDS011;66168;45.478;11.060;2022-12-18T06:08:10;7.50;;;5.50;;
76867;SDS011;66168;45.478;11.060;2022-12-18T06:10:38;5.90;;;5.00;;
76867;SDS011;66168;45.478;11.060;2022-12-18T06:13:06;6.30;;;4.90;;
76867;SDS011;66168;45.478;11.060;2022-12-18T06:15:35;6.70;;;4.80;;
76867;SDS011;66168;45.478;11.060;2022-12-18T06:18:04;6.90;;;5.50;;
76867;SDS011;66168;45.478;11.060;2022-12-18T06:20:31;7.10;;;5.90;;
76867;SDS011;66168;45.478;11.060;2022-12-18T06:22:59;8.50;;;5.70;;
76867;SDS011;66168;45.478;11.060;2022-12-18T06:25:26;6.00;;;4.90;;
76867;SDS011;66168;45.478;11.060;2022-12-18T06:27:53;7.20;;;5.60;;
76867;SDS011;66168;45.478;11.060;2022-12-18T06:30:21;7.20;;;5.60;;
76867;SDS011;66168;45.478;11.060;2022-12-18T06:32:48;9.30;;;6.40;;
76867;SDS011;66168;45.478;11.060;2022-12-18T06:35:22;9.60;;;6.60;;
76867;SDS011;66168;45.478;11.060;2022-12-18T06:37:49;10.10;;;7.10;;
76867;SDS011;66168;45.478;11.060;2022-12-18T06:40:16;8.70;;;6.40;;
76867;SDS011;66168;45.478;11.060;2022-12-18T06:42:43;9.10;;;6.90;;
76867;SDS011;66168;45.478;11.060;2022-12-18T06:45:10;18.60;;;12.10;;
76867;SDS011;66168;45.478;11.060;2022-12-18T06:47:38;8.60;;;6.90;;
76867;SDS011;66168;45.478;11.060;2022-12-18T06:50:04;19.40;;;10.70;;
76867;SDS011;66168;45.478;11.060;2022-12-18T06:52:32;15.10;;;9.20;;
76867;SDS011;66168;45.478;11.060;2022-12-18T06:55:00;11.80;;;8.10;;
76867;SDS011;66168;45.478;11.060;2022-12-18T06:57:27;9.20;;;6.70;;
76867;SDS011;66168;45.478;11.060;2022-12-18T06:59:54;8.40;;;6.10;;
76867;SDS011;66168;45.478;11.060;2022-12-18T07:02:20;9.90;;;7.80;;
76867;SDS011;66168;45.478;11.060;2022-12-18T07:04:50;12.50;;;8.70;;
76867;SDS011;66168;45.478;11.060;2022-12-18T07:07:17;10.60;;;7.20;;
76867;SDS011;66168;45.478;11.060;2022-12-18T07:09:44;17.70;;;10.30;;
76867;SDS011;66168;45.478;11.060;2022-12-18T07:12:11;13.00;;;8.00;;
76867;SDS011;66168;45.478;11.060;2022-12-18T07:14:37;9.40;;;6.80;;
76867;SDS011;66168;45.478;11.060;2022-12-18T07:17:04;12.80;;;8.00;;
76867;SDS011;66168;45.478;11.060;2022-12-18T07:19:32;10.40;;;8.10;;
76867;SDS011;66168;45.478;11.060;2022-12-18T07:21:59;9.10;;;7.50;;
76867;SDS011;66168;45.478;11.060;2022-12-18T07:24:27;7.60;;;6.60;;
76867;SDS011;66168;45.478;11.060;2022-12-18T07:26:54;8.60;;;6.60;;
76867;SDS011;66168;45.478;11.060;2022-12-18T07:29:21;8.90;;;6.50;;
76867;SDS011;66168;45.478;11.060;2022-12-18T07:31:47;7.80;;;6.10;;
76867;SDS011;66168;45.478;11.060;2022-12-18T07:34:15;11.60;;;7.70;;
76867;SDS011;66168;45.478;11.060;2022-12-18T07:36:43;9.40;;;6.50;;
76867;SDS011;66168;45.478;11.060;2022-12-18T07:39:10;9.90;;;6.60;;
76867;SDS011;66168;45.478;11.060;2022-12-18T07:41:38;8.40;;;6.20;;
76867;SDS011;66168;45.478;11.060;2022-12-18T07:44:14;10.30;;;6.50;;
76867;SDS011;66168;45.478;11.060;2022-12-18T07:46:41;9.00;;;6.70;;
76867;SDS011;66168;45.478;11.060;2022-12-18T07:49:08;11.30;;;6.80;;
76867;SDS011;66168;45.478;11.060;2022-12-18T07:51:34;11.00;;;6.90;;
76867;SDS011;66168;45.478;11.060;2022-12-18T07:54:01;9.50;;;6.50;;
76867;SDS011;66168;45.478;11.060;2022-12-18T07:56:28;8.90;;;6.20;;
76867;SDS011;66168;45.478;11.060;2022-12-18T07:58:57;7.20;;;5.30;;
76867;SDS011;66168;45.478;11.060;2022-12-18T08:01:25;8.20;;;5.70;;
76867;SDS011;66168;45.478;11.060;2022-12-18T08:03:52;8.80;;;5.90;;
76867;SDS011;66168;45.478;11.060;2022-12-18T08:06:19;9.80;;;6.50;;
76867;SDS011;66168;45.478;11.060;2022-12-18T08:08:53;7.20;;;5.80;;
76867;SDS011;66168;45.478;11.060;2022-12-18T08:11:21;7.60;;;5.70;;
76867;SDS011;66168;45.478;11.060;2022-12-18T08:13:49;6.20;;;5.30;;
76867;SDS011;66168;45.478;11.060;2022-12-18T08:16:17;6.20;;;5.30;;
76867;SDS011;66168;45.478;11.060;2022-12-18T08:18:45;7.70;;;4.90;;
76867;SDS011;66168;45.478;11.060;2022-12-18T08:23:41;6.60;;;5.20;;
76867;SDS011;66168;45.478;11.060;2022-12-18T08:26:10;6.20;;;5.40;;
76867;SDS011;66168;45.478;11.060;2022-12-18T08:28:38;6.50;;;4.90;;
76867;SDS011;66168;45.478;11.060;2022-12-18T08:31:06;6.50;;;5.40;;
76867;SDS011;66168;45.478;11.060;2022-12-18T08:33:33;7.40;;;5.50;;
76867;SDS011;66168;45.478;11.060;2022-12-18T08:36:05;8.40;;;6.20;;
76867;SDS011;66168;45.478;11.060;2022-12-18T08:38:32;5.70;;;5.00;;
76867;SDS011;66168;45.478;11.060;2022-12-18T08:41:00;11.30;;;7.70;;
76867;SDS011;66168;45.478;11.060;2022-12-18T08:43:27;12.60;;;8.50;;
76867;SDS011;66168;45.478;11.060;2022-12-18T08:46:30;9.00;;;7.10;;
76867;SDS011;66168;45.478;11.060;2022-12-18T08:48:59;8.30;;;6.50;;
76867;SDS011;66168;45.478;11.060;2022-12-18T08:51:26;7.60;;;6.10;;
76867;SDS011;66168;45.478;11.060;2022-12-18T08:53:53;8.30;;;6.10;;
76867;SDS011;66168;45.478;11.060;2022-12-18T08:56:20;8.90;;;6.70;;
76867;SDS011;66168;45.478;11.060;2022-12-18T08:58:46;9.00;;;6.20;;
76867;SDS011;66168;45.478;11.060;2022-12-18T09:01:13;8.40;;;6.30;;
76867;SDS011;66168;45.478;11.060;2022-12-18T09:03:40;11.50;;;6.50;;
76867;SDS011;66168;45.478;11.060;2022-12-18T09:06:08;9.40;;;6.40;;
76867;SDS011;66168;45.478;11.060;2022-12-18T09:08:35;10.60;;;6.90;;
76867;SDS011;66168;45.478;11.060;2022-12-18T09:11:03;8.20;;;6.80;;
76867;SDS011;66168;45.478;11.060;2022-12-18T09:13:30;13.20;;;7.90;;
76867;SDS011;66168;45.478;11.060;2022-12-18T09:15:57;10.90;;;7.30;;
76867;SDS011;66168;45.478;11.060;2022-12-18T09:18:24;9.10;;;7.30;;
76867;SDS011;66168;45.478;11.060;2022-12-18T09:20:51;9.30;;;6.90;;
76867;SDS011;66168;45.478;11.060;2022-12-18T09:23:19;7.60;;;5.70;;
76867;SDS011;66168;45.478;11.060;2022-12-18T09:25:47;8.20;;;5.90;;
76867;SDS011;66168;45.478;11.060;2022-12-18T09:28:15;6.50;;;5.50;;
76867;SDS011;66168;45.478;11.060;2022-12-18T09:30:46;7.80;;;6.30;;
76867;SDS011;66168;45.478;11.060;2022-12-18T09:33:15;7.60;;;6.00;;
76867;SDS011;66168;45.478;11.060;2022-12-18T09:35:43;9.80;;;6.30;;
76867;SDS011;66168;45.478;11.060;2022-12-18T09:38:11;8.00;;;6.30;;
76867;SDS011;66168;45.478;11.060;2022-12-18T09:40:43;8.20;;;6.50;;
76867;SDS011;66168;45.478;11.060;2022-12-18T09:43:17;7.50;;;6.30;;
76867;SDS011;66168;45.478;11.060;2022-12-18T09:45:53;8.60;;;6.80;;
76867;SDS011;66168;45.478;11.060;2022-12-18T09:48:31;9.20;;;6.50;;
76867;SDS011;66168;45.478;11.060;2022-12-18T09:51:17;12.00;;;8.60;;
76867;SDS011;66168;45.478;11.060;2022-12-18T09:53:53;9.30;;;7.10;;
76867;SDS011;66168;45.478;11.060;2022-12-18T09:56:25;10.50;;;7.00;;
76867;SDS011;66168;45.478;11.060;2022-12-18T09:58:58;8.40;;;6.50;;
76867;SDS011;66168;45.478;11.060;2022-12-18T10:01:27;9.50;;;6.10;;
76867;SDS011;66168;45.478;11.060;2022-12-18T10:04:07;7.70;;;6.00;;
76867;SDS011;66168;45.478;11.060;2022-12-18T10:06:36;8.10;;;6.10;;
76867;SDS011;66168;45.478;11.060;2022-12-18T10:12:21;9.70;;;6.90;;
76867;SDS011;66168;45.478;11.060;2022-12-18T10:15:20;10.70;;;6.40;;
76867;SDS011;66168;45.478;11.060;2022-12-18T10:17:51;8.40;;;7.00;;
76867;SDS011;66168;45.478;11.060;2022-12-18T10:20:45;7.70;;;7.00;;
76867;SDS011;66168;45.478;11.060;2022-12-18T10:23:18;7.00;;;5.50;;
76867;SDS011;66168;45.478;11.060;2022-12-18T10:26:13;8.80;;;6.50;;
76867;SDS011;66168;45.478;11.060;2022-12-18T10:28:43;6.90;;;5.80;;
76867;SDS011;66168;45.478;11.060;2022-12-18T10:31:17;8.50;;;6.40;;
76867;SDS011;66168;45.478;11.060;2022-12-18T10:33:49;8.90;;;6.10;;
76867;SDS011;66168;45.478;11.060;2022-12-18T10:36:16;8.00;;;6.10;;
76867;SDS011;66168;45.478;11.060;2022-12-18T10:38:43;7.20;;;6.40;;
76867;SDS011;66168;45.478;11.060;2022-12-18T10:43:48;7.90;;;5.80;;
76867;SDS011;66168;45.478;11.060;2022-12-18T10:46:35;6.60;;;5.00;;
76867;SDS011;66168;45.478;11.060;2022-12-18T10:49:02;11.60;;;6.80;;
76867;SDS011;66168;45.478;11.060;2022-12-18T10:54:12;7.80;;;6.30;;
76867;SDS011;66168;45.478;11.060;2022-12-18T10:56:43;7.50;;;6.20;;
76867;SDS011;66168;45.478;11.060;2022-12-18T10:59:12;7.20;;;6.10;;
76867;SDS011;66168;45.478;11.060;2022-12-18T11:01:52;8.20;;;6.90;;
76867;SDS011;66168;45.478;11.060;2022-12-18T11:04:22;7.80;;;6.00;;
76867;SDS011;66168;45.478;11.060;2022-12-18T11:07:08;7.00;;;6.30;;
76867;SDS011;66168;45.478;11.060;2022-12-18T11:09:37;7.50;;;5.70;;
76867;SDS011;66168;45.478;11.060;2022-12-18T11:12:14;8.30;;;6.30;;
76867;SDS011;66168;45.478;11.060;2022-12-18T11:14:47;7.90;;;6.60;;
76867;SDS011;66168;45.478;11.060;2022-12-18T11:19:58;7.70;;;6.70;;
76867;SDS011;66168;45.478;11.060;2022-12-18T11:22:31;7.50;;;5.10;;
76867;SDS011;66168;45.478;11.060;2022-12-18T11:31:08;7.80;;;6.70;;
76867;SDS011;66168;45.478;11.060;2022-12-18T11:33:36;7.90;;;6.30;;
76867;SDS011;66168;45.478;11.060;2022-12-18T11:36:28;8.20;;;6.30;;
76867;SDS011;66168;45.478;11.060;2022-12-18T11:38:59;9.40;;;6.40;;
76867;SDS011;66168;45.478;11.060;2022-12-18T11:41:38;9.20;;;6.80;;
76867;SDS011;66168;45.478;11.060;2022-12-18T11:44:35;7.60;;;6.40;;
76867;SDS011;66168;45.478;11.060;2022-12-18T11:50:20;7.30;;;6.00;;
76867;SDS011;66168;45.478;11.060;2022-12-18T11:52:51;8.30;;;5.80;;
76867;SDS011;66168;45.478;11.060;2022-12-18T11:55:30;8.10;;;6.50;;
76867;SDS011;66168;45.478;11.060;2022-12-18T12:00:37;7.90;;;6.10;;
76867;SDS011;66168;45.478;11.060;2022-12-18T12:09:06;9.80;;;7.20;;
76867;SDS011;66168;45.478;11.060;2022-12-18T12:20:07;8.40;;;7.00;;
76867;SDS011;66168;45.478;11.060;2022-12-18T12:22:47;7.60;;;6.30;;
76867;SDS011;66168;45.478;11.060;2022-12-18T12:30:56;12.70;;;8.70;;
76867;SDS011;66168;45.478;11.060;2022-12-18T12:36:30;9.10;;;7.30;;
76867;SDS011;66168;45.478;11.060;2022-12-18T12:39:05;9.80;;;7.20;;
76867;SDS011;66168;45.478;11.060;2022-12-18T12:41:35;7.80;;;6.30;;
76867;SDS011;66168;45.478;11.060;2022-12-18T12:44:30;7.70;;;6.30;;
76867;SDS011;66168;45.478;11.060;2022-12-18T12:47:05;10.70;;;7.70;;
76867;SDS011;66168;45.478;11.060;2022-12-18T12:49:41;11.00;;;8.40;;
76867;SDS011;66168;45.478;11.060;2022-12-18T12:52:30;9.80;;;7.20;;
76867;SDS011;66168;45.478;11.060;2022-12-18T12:55:03;10.10;;;7.60;;
76867;SDS011;66168;45.478;11.060;2022-12-18T12:57:41;9.20;;;7.80;;
76867;SDS011;66168;45.478;11.060;2022-12-18T13:00:19;8.00;;;6.80;;
76867;SDS011;66168;45.478;11.060;2022-12-18T13:05:59;8.90;;;7.40;;
76867;SDS011;66168;45.478;11.060;2022-12-18T13:08:34;9.00;;;6.80;;
76867;SDS011;66168;45.478;11.060;2022-12-18T13:11:39;11.80;;;8.70;;
76867;SDS011;66168;45.478;11.060;2022-12-18T13:17:15;10.30;;;7.60;;
76867;SDS011;66168;45.478;11.060;2022-12-18T13:20:05;8.20;;;6.90;;
76867;SDS011;66168;45.478;11.060;2022-12-18T13:22:43;9.10;;;7.40;;
76867;SDS011;66168;45.478;11.060;2022-12-18T13:28:09;9.60;;;6.90;;
76867;SDS011;66168;45.478;11.060;2022-12-18T13:38:22;8.10;;;6.60;;
76867;SDS011;66168;45.478;11.060;2022-12-18T13:46:06;8.70;;;6.40;;
76867;SDS011;66168;45.478;11.060;2022-12-18T13:48:48;12.10;;;7.50;;
76867;SDS011;66168;45.478;11.060;2022-12-18T13:51:27;8.50;;;7.20;;
76867;SDS011;66168;45.478;11.060;2022-12-18T13:53:58;7.80;;;6.40;;
76867;SDS011;66168;45.478;11.060;2022-12-18T13:56:46;7.50;;;6.50;;
76867;SDS011;66168;45.478;11.060;2022-12-18T13:59:21;8.20;;;6.20;;
76867;SDS011;66168;45.478;11.060;2022-12-18T14:01:51;8.30;;;6.70;;
76867;SDS011;66168;45.478;11.060;2022-12-18T14:04:23;7.10;;;6.30;;
76867;SDS011;66168;45.478;11.060;2022-12-18T14:06:51;9.10;;;7.20;;
76867;SDS011;66168;45.478;11.060;2022-12-18T14:09:24;7.80;;;5.70;;
76867;SDS011;66168;45.478;11.060;2022-12-18T14:11:53;7.30;;;5.70;;
76867;SDS011;66168;45.478;11.060;2022-12-18T14:14:42;6.70;;;5.90;;
76867;SDS011;66168;45.478;11.060;2022-12-18T14:17:11;7.50;;;6.30;;
76867;SDS011;66168;45.478;11.060;2022-12-18T14:19:45;8.00;;;5.90;;
76867;SDS011;66168;45.478;11.060;2022-12-18T14:22:16;9.40;;;6.90;;
76867;SDS011;66168;45.478;11.060;2022-12-18T14:24:58;10.80;;;6.80;;
76867;SDS011;66168;45.478;11.060;2022-12-18T14:27:37;8.70;;;6.80;;
76867;SDS011;66168;45.478;11.060;2022-12-18T14:35:52;6.80;;;5.50;;
76867;SDS011;66168;45.478;11.060;2022-12-18T14:38:28;6.90;;;5.50;;
76867;SDS011;66168;45.478;11.060;2022-12-18T14:41:06;7.00;;;5.10;;
76867;SDS011;66168;45.478;11.060;2022-12-18T14:43:38;7.10;;;5.40;;
76867;SDS011;66168;45.478;11.060;2022-12-18T14:48:52;7.90;;;5.60;;
76867;SDS011;66168;45.478;11.060;2022-12-18T14:51:24;6.20;;;5.20;;
76867;SDS011;66168;45.478;11.060;2022-12-18T14:53:57;7.20;;;5.50;;
76867;SDS011;66168;45.478;11.060;2022-12-18T14:59:00;5.90;;;5.10;;
76867;SDS011;66168;45.478;11.060;2022-12-18T15:01:39;6.60;;;5.40;;
76867;SDS011;66168;45.478;11.060;2022-12-18T15:04:36;6.30;;;5.60;;
76867;SDS011;66168;45.478;11.060;2022-12-18T15:09:37;6.10;;;5.00;;
76867;SDS011;66168;45.478;11.060;2022-12-18T15:12:16;8.60;;;5.80;;
76867;SDS011;66168;45.478;11.060;2022-12-18T15:14:51;8.90;;;6.30;;
76867;SDS011;66168;45.478;11.060;2022-12-18T15:17:20;7.80;;;6.00;;
76867;SDS011;66168;45.478;11.060;2022-12-18T15:19:51;6.60;;;6.00;;
76867;SDS011;66168;45.478;11.060;2022-12-18T15:22:26;7.70;;;6.20;;
76867;SDS011;66168;45.478;11.060;2022-12-18T15:24:55;9.30;;;6.30;;
76867;SDS011;66168;45.478;11.060;2022-12-18T15:27:28;8.90;;;6.30;;
76867;SDS011;66168;45.478;11.060;2022-12-18T15:30:23;10.20;;;7.10;;
76867;SDS011;66168;45.478;11.060;2022-12-18T15:32:50;9.30;;;6.50;;
76867;SDS011;66168;45.478;11.060;2022-12-18T15:35:20;10.90;;;7.70;;
76867;SDS011;66168;45.478;11.060;2022-12-18T15:37:49;9.90;;;7.20;;
76867;SDS011;66168;45.478;11.060;2022-12-18T15:40:19;14.50;;;9.10;;
76867;SDS011;66168;45.478;11.060;2022-12-18T15:42:47;11.30;;;7.80;;
76867;SDS011;66168;45.478;11.060;2022-12-18T15:45:36;11.40;;;7.00;;
76867;SDS011;66168;45.478;11.060;2022-12-18T15:48:15;9.60;;;6.50;;
76867;SDS011;66168;45.478;11.060;2022-12-18T15:50:46;10.20;;;6.70;;
76867;SDS011;66168;45.478;11.060;2022-12-18T15:53:13;10.70;;;7.60;;
76867;SDS011;66168;45.478;11.060;2022-12-18T15:55:40;10.00;;;7.30;;
76867;SDS011;66168;45.478;11.060;2022-12-18T15:58:26;14.20;;;8.70;;
76867;SDS011;66168;45.478;11.060;2022-12-18T16:00:53;13.40;;;8.60;;
76867;SDS011;66168;45.478;11.060;2022-12-18T16:03:22;12.70;;;8.90;;
76867;SDS011;66168;45.478;11.060;2022-12-18T16:05:49;15.60;;;10.10;;
76867;SDS011;66168;45.478;11.060;2022-12-18T16:08:16;17.30;;;10.40;;
76867;SDS011;66168;45.478;11.060;2022-12-18T16:10:43;13.00;;;9.00;;
76867;SDS011;66168;45.478;11.060;2022-12-18T16:13:10;22.00;;;13.50;;
76867;SDS011;66168;45.478;11.060;2022-12-18T16:15:38;19.80;;;11.90;;
76867;SDS011;66168;45.478;11.060;2022-12-18T16:18:07;18.40;;;11.80;;
76867;SDS011;66168;45.478;11.060;2022-12-18T16:20:33;11.90;;;8.40;;
76867;SDS011;66168;45.478;11.060;2022-12-18T16:23:00;10.20;;;7.70;;
76867;SDS011;66168;45.478;11.060;2022-12-18T16:25:27;12.30;;;8.70;;
76867;SDS011;66168;45.478;11.060;2022-12-18T16:27:55;12.60;;;8.90;;
76867;SDS011;66168;45.478;11.060;2022-12-18T16:30:24;10.60;;;7.50;;
76867;SDS011;66168;45.478;11.060;2022-12-18T16:32:57;11.50;;;8.50;;
76867;SDS011;66168;45.478;11.060;2022-12-18T16:35:25;11.60;;;7.90;;
76867;SDS011;66168;45.478;11.060;2022-12-18T16:37:53;9.60;;;7.60;;
76867;SDS011;66168;45.478;11.060;2022-12-18T16:40:19;9.10;;;6.60;;
76867;SDS011;66168;45.478;11.060;2022-12-18T16:42:47;10.10;;;6.80;;
76867;SDS011;66168;45.478;11.060;2022-12-18T16:45:15;13.80;;;7.90;;
76867;SDS011;66168;45.478;11.060;2022-12-18T16:47:43;12.70;;;8.60;;
76867;SDS011;66168;45.478;11.060;2022-12-18T16:50:10;9.70;;;7.50;;